sensor_id;sensor_type;location;lat;lon;timestamp;P1;durP1;ratioP1;P2;durP2;ratioP2
71176;SDS011;58877;51.992;4.504;2023-08-08T00:02:29;4.12;;;3.11;;
71176;SDS011;58877;51.992;4.504;2023-08-08T00:08:35;3.51;;;2.84;;
71176;SDS011;58877;51.992;4.504;2023-08-08T00:11:03;3.22;;;2.60;;
71176;SDS011;58877;51.992;4.504;2023-08-08T00:13:35;4.05;;;3.20;;
71176;SDS011;58877;51.992;4.504;2023-08-08T00:16:13;3.82;;;2.97;;
71176;SDS011;58877;51.992;4.504;2023-08-08T00:18:45;3.94;;;3.03;;
71176;SDS011;58877;51.992;4.504;2023-08-08T00:21:30;3.60;;;2.73;;
71176;SDS011;58877;51.992;4.504;2023-08-08T00:24:16;3.86;;;2.97;;
71176;SDS011;58877;51.992;4.504;2023-08-08T00:26:52;4.06;;;3.14;;
71176;SDS011;58877;51.992;4.504;2023-08-08T00:29:42;4.10;;;3.21;;
71176;SDS011;58877;51.992;4.504;2023-08-08T00:32:20;4.68;;;3.64;;
71176;SDS011;58877;51.992;4.504;2023-08-08T00:35:12;3.19;;;2.56;;
71176;SDS011;58877;51.992;4.504;2023-08-08T00:37:47;2.89;;;2.43;;
71176;SDS011;58877;51.992;4.504;2023-08-08T00:40:34;3.20;;;2.71;;
71176;SDS011;58877;51.992;4.504;2023-08-08T00:43:28;3.55;;;2.96;;
71176;SDS011;58877;51.992;4.504;2023-08-08T00:46:09;3.12;;;2.62;;
71176;SDS011;58877;51.992;4.504;2023-08-08T00:48:38;2.60;;;2.21;;
71176;SDS011;58877;51.992;4.504;2023-08-08T00:51:07;2.57;;;2.21;;
71176;SDS011;58877;51.992;4.504;2023-08-08T00:53:37;2.36;;;2.07;;
71176;SDS011;58877;51.992;4.504;2023-08-08T00:56:06;2.02;;;1.80;;
71176;SDS011;58877;51.992;4.504;2023-08-08T00:58:47;2.07;;;1.90;;
71176;SDS011;58877;51.992;4.504;2023-08-08T01:01:20;1.77;;;1.63;;
71176;SDS011;58877;51.992;4.504;2023-08-08T01:04:01;1.80;;;1.70;;
71176;SDS011;58877;51.992;4.504;2023-08-08T01:09:39;2.21;;;2.12;;
71176;SDS011;58877;51.992;4.504;2023-08-08T01:12:29;1.89;;;1.80;;
71176;SDS011;58877;51.992;4.504;2023-08-08T01:15:06;1.99;;;1.89;;
71176;SDS011;58877;51.992;4.504;2023-08-08T01:17:39;1.52;;;1.46;;
71176;SDS011;58877;51.992;4.504;2023-08-08T01:20:22;1.91;;;1.85;;
71176;SDS011;58877;51.992;4.504;2023-08-08T01:26:08;1.67;;;1.61;;
71176;SDS011;58877;51.992;4.504;2023-08-08T01:28:54;1.75;;;1.70;;
71176;SDS011;58877;51.992;4.504;2023-08-08T01:31:26;1.73;;;1.70;;
71176;SDS011;58877;51.992;4.504;2023-08-08T01:34:05;1.81;;;1.81;;
71176;SDS011;58877;51.992;4.504;2023-08-08T01:36:39;1.86;;;1.85;;
71176;SDS011;58877;51.992;4.504;2023-08-08T01:39:13;1.49;;;1.49;;
71176;SDS011;58877;51.992;4.504;2023-08-08T01:44:53;1.59;;;1.58;;
71176;SDS011;58877;51.992;4.504;2023-08-08T01:47:30;1.63;;;1.61;;
71176;SDS011;58877;51.992;4.504;2023-08-08T01:50:25;1.33;;;1.32;;
71176;SDS011;58877;51.992;4.504;2023-08-08T01:52:56;1.48;;;1.47;;
71176;SDS011;58877;51.992;4.504;2023-08-08T01:55:23;1.49;;;1.45;;
71176;SDS011;58877;51.992;4.504;2023-08-08T01:57:49;1.59;;;1.55;;
71176;SDS011;58877;51.992;4.504;2023-08-08T02:00:16;1.67;;;1.63;;
71176;SDS011;58877;51.992;4.504;2023-08-08T02:02:42;1.65;;;1.61;;
71176;SDS011;58877;51.992;4.504;2023-08-08T02:05:11;1.56;;;1.52;;
71176;SDS011;58877;51.992;4.504;2023-08-08T02:07:37;1.65;;;1.62;;
71176;SDS011;58877;51.992;4.504;2023-08-08T02:10:04;1.41;;;1.38;;
71176;SDS011;58877;51.992;4.504;2023-08-08T02:12:30;1.43;;;1.39;;
71176;SDS011;58877;51.992;4.504;2023-08-08T02:14:56;1.50;;;1.45;;
71176;SDS011;58877;51.992;4.504;2023-08-08T02:17:23;1.37;;;1.34;;
71176;SDS011;58877;51.992;4.504;2023-08-08T02:19:49;1.53;;;1.49;;
71176;SDS011;58877;51.992;4.504;2023-08-08T02:22:16;1.44;;;1.39;;
71176;SDS011;58877;51.992;4.504;2023-08-08T02:24:43;1.28;;;1.22;;
71176;SDS011;58877;51.992;4.504;2023-08-08T02:27:13;1.58;;;1.52;;
71176;SDS011;58877;51.992;4.504;2023-08-08T02:29:39;1.66;;;1.59;;
71176;SDS011;58877;51.992;4.504;2023-08-08T02:32:05;1.46;;;1.36;;
71176;SDS011;58877;51.992;4.504;2023-08-08T02:34:32;1.54;;;1.41;;
71176;SDS011;58877;51.992;4.504;2023-08-08T02:36:58;1.99;;;1.81;;
71176;SDS011;58877;51.992;4.504;2023-08-08T02:39:29;1.55;;;1.43;;
71176;SDS011;58877;51.992;4.504;2023-08-08T02:42:01;1.43;;;1.31;;
71176;SDS011;58877;51.992;4.504;2023-08-08T02:44:27;1.41;;;1.28;;
71176;SDS011;58877;51.992;4.504;2023-08-08T02:46:54;1.65;;;1.51;;
71176;SDS011;58877;51.992;4.504;2023-08-08T02:49:20;1.79;;;1.65;;
71176;SDS011;58877;51.992;4.504;2023-08-08T02:51:46;1.70;;;1.54;;
71176;SDS011;58877;51.992;4.504;2023-08-08T02:54:11;1.34;;;1.21;;
71176;SDS011;58877;51.992;4.504;2023-08-08T02:56:38;1.38;;;1.28;;
71176;SDS011;58877;51.992;4.504;2023-08-08T02:59:04;1.45;;;1.34;;
71176;SDS011;58877;51.992;4.504;2023-08-08T03:01:30;1.36;;;1.25;;
71176;SDS011;58877;51.992;4.504;2023-08-08T03:03:59;1.63;;;1.50;;
71176;SDS011;58877;51.992;4.504;2023-08-08T03:06:28;1.22;;;1.13;;
71176;SDS011;58877;51.992;4.504;2023-08-08T03:08:54;1.27;;;1.16;;
71176;SDS011;58877;51.992;4.504;2023-08-08T03:11:20;1.18;;;1.08;;
71176;SDS011;58877;51.992;4.504;2023-08-08T03:13:48;1.18;;;1.10;;
71176;SDS011;58877;51.992;4.504;2023-08-08T03:16:16;1.12;;;1.05;;
71176;SDS011;58877;51.992;4.504;2023-08-08T03:18:41;1.35;;;1.27;;
71176;SDS011;58877;51.992;4.504;2023-08-08T03:21:08;1.47;;;1.38;;
71176;SDS011;58877;51.992;4.504;2023-08-08T03:23:34;1.11;;;1.05;;
71176;SDS011;58877;51.992;4.504;2023-08-08T03:25:59;1.22;;;1.15;;
71176;SDS011;58877;51.992;4.504;2023-08-08T03:28:28;1.60;;;1.52;;
71176;SDS011;58877;51.992;4.504;2023-08-08T03:30:54;1.04;;;0.98;;
71176;SDS011;58877;51.992;4.504;2023-08-08T03:33:24;0.98;;;0.92;;
71176;SDS011;58877;51.992;4.504;2023-08-08T03:35:57;1.40;;;1.31;;
71176;SDS011;58877;51.992;4.504;2023-08-08T03:38:23;1.27;;;1.18;;
71176;SDS011;58877;51.992;4.504;2023-08-08T03:40:50;1.22;;;1.13;;
71176;SDS011;58877;51.992;4.504;2023-08-08T03:43:17;1.30;;;1.21;;
71176;SDS011;58877;51.992;4.504;2023-08-08T03:45:44;1.18;;;1.11;;
71176;SDS011;58877;51.992;4.504;2023-08-08T03:48:10;1.22;;;1.14;;
71176;SDS011;58877;51.992;4.504;2023-08-08T03:50:36;1.23;;;1.15;;
71176;SDS011;58877;51.992;4.504;2023-08-08T03:53:04;1.32;;;1.23;;
71176;SDS011;58877;51.992;4.504;2023-08-08T03:55:32;0.90;;;0.83;;
71176;SDS011;58877;51.992;4.504;2023-08-08T03:57:58;1.47;;;1.36;;
71176;SDS011;58877;51.992;4.504;2023-08-08T04:00:24;1.08;;;1.00;;
71176;SDS011;58877;51.992;4.504;2023-08-08T04:02:50;1.34;;;1.23;;
71176;SDS011;58877;51.992;4.504;2023-08-08T04:05:15;1.33;;;1.20;;
71176;SDS011;58877;51.992;4.504;2023-08-08T04:07:42;0.97;;;0.88;;
71176;SDS011;58877;51.992;4.504;2023-08-08T04:10:09;1.42;;;1.28;;
71176;SDS011;58877;51.992;4.504;2023-08-08T04:12:35;1.54;;;1.38;;
71176;SDS011;58877;51.992;4.504;2023-08-08T04:15:01;1.31;;;1.19;;
71176;SDS011;58877;51.992;4.504;2023-08-08T04:17:27;1.33;;;1.21;;
71176;SDS011;58877;51.992;4.504;2023-08-08T04:19:54;1.36;;;1.22;;
71176;SDS011;58877;51.992;4.504;2023-08-08T04:22:37;1.28;;;1.15;;
71176;SDS011;58877;51.992;4.504;2023-08-08T04:25:03;1.09;;;0.99;;
71176;SDS011;58877;51.992;4.504;2023-08-08T04:27:31;1.31;;;1.16;;
71176;SDS011;58877;51.992;4.504;2023-08-08T04:29:57;1.27;;;1.13;;
71176;SDS011;58877;51.992;4.504;2023-08-08T04:32:22;1.07;;;0.96;;
71176;SDS011;58877;51.992;4.504;2023-08-08T04:34:48;1.22;;;1.09;;
71176;SDS011;58877;51.992;4.504;2023-08-08T04:37:18;1.29;;;1.15;;
71176;SDS011;58877;51.992;4.504;2023-08-08T04:39:47;1.51;;;1.35;;
71176;SDS011;58877;51.992;4.504;2023-08-08T04:42:13;1.26;;;1.15;;
71176;SDS011;58877;51.992;4.504;2023-08-08T04:44:39;1.29;;;1.17;;
71176;SDS011;58877;51.992;4.504;2023-08-08T04:47:05;1.38;;;1.23;;
71176;SDS011;58877;51.992;4.504;2023-08-08T04:49:31;1.37;;;1.21;;
71176;SDS011;58877;51.992;4.504;2023-08-08T04:51:57;1.65;;;1.42;;
71176;SDS011;58877;51.992;4.504;2023-08-08T04:54:23;1.51;;;1.27;;
71176;SDS011;58877;51.992;4.504;2023-08-08T04:56:50;1.38;;;1.16;;
71176;SDS011;58877;51.992;4.504;2023-08-08T04:59:15;1.39;;;1.18;;
71176;SDS011;58877;51.992;4.504;2023-08-08T05:01:47;1.47;;;1.25;;
71176;SDS011;58877;51.992;4.504;2023-08-08T05:04:13;1.55;;;1.29;;
71176;SDS011;58877;51.992;4.504;2023-08-08T05:06:41;1.35;;;1.13;;
71176;SDS011;58877;51.992;4.504;2023-08-08T05:09:15;1.32;;;1.11;;
71176;SDS011;58877;51.992;4.504;2023-08-08T05:11:46;1.42;;;1.21;;
71176;SDS011;58877;51.992;4.504;2023-08-08T05:14:12;1.51;;;1.31;;
71176;SDS011;58877;51.992;4.504;2023-08-08T05:16:40;1.35;;;1.17;;
71176;SDS011;58877;51.992;4.504;2023-08-08T05:19:06;1.13;;;1.00;;
71176;SDS011;58877;51.992;4.504;2023-08-08T05:21:35;1.12;;;1.00;;
71176;SDS011;58877;51.992;4.504;2023-08-08T05:24:01;1.44;;;1.28;;
71176;SDS011;58877;51.992;4.504;2023-08-08T05:26:39;1.44;;;1.28;;
71176;SDS011;58877;51.992;4.504;2023-08-08T05:29:18;1.69;;;1.49;;
71176;SDS011;58877;51.992;4.504;2023-08-08T05:31:46;1.35;;;1.17;;
71176;SDS011;58877;51.992;4.504;2023-08-08T05:34:14;1.32;;;1.17;;
71176;SDS011;58877;51.992;4.504;2023-08-08T05:36:40;1.09;;;0.98;;
71176;SDS011;58877;51.992;4.504;2023-08-08T05:39:05;1.14;;;1.01;;
71176;SDS011;58877;51.992;4.504;2023-08-08T05:41:32;1.16;;;1.03;;
71176;SDS011;58877;51.992;4.504;2023-08-08T05:43:58;1.45;;;1.26;;
71176;SDS011;58877;51.992;4.504;2023-08-08T05:46:28;1.07;;;0.93;;
71176;SDS011;58877;51.992;4.504;2023-08-08T05:49:00;0.94;;;0.81;;
71176;SDS011;58877;51.992;4.504;2023-08-08T05:51:26;1.06;;;0.92;;
71176;SDS011;58877;51.992;4.504;2023-08-08T05:54:09;1.15;;;1.02;;
71176;SDS011;58877;51.992;4.504;2023-08-08T05:56:37;1.04;;;0.91;;
71176;SDS011;58877;51.992;4.504;2023-08-08T05:59:15;0.85;;;0.75;;
71176;SDS011;58877;51.992;4.504;2023-08-08T06:01:45;0.91;;;0.80;;
71176;SDS011;58877;51.992;4.504;2023-08-08T06:04:14;1.17;;;1.02;;
71176;SDS011;58877;51.992;4.504;2023-08-08T06:06:40;1.35;;;1.16;;
71176;SDS011;58877;51.992;4.504;2023-08-08T06:09:17;0.88;;;0.74;;
71176;SDS011;58877;51.992;4.504;2023-08-08T06:11:45;0.91;;;0.76;;
71176;SDS011;58877;51.992;4.504;2023-08-08T06:14:24;1.18;;;1.00;;
71176;SDS011;58877;51.992;4.504;2023-08-08T06:16:50;1.48;;;1.24;;
71176;SDS011;58877;51.992;4.504;2023-08-08T06:19:16;0.99;;;0.82;;
71176;SDS011;58877;51.992;4.504;2023-08-08T06:21:43;1.10;;;0.91;;
71176;SDS011;58877;51.992;4.504;2023-08-08T06:24:29;0.92;;;0.77;;
71176;SDS011;58877;51.992;4.504;2023-08-08T06:26:55;1.14;;;0.95;;
71176;SDS011;58877;51.992;4.504;2023-08-08T06:29:22;0.94;;;0.78;;
71176;SDS011;58877;51.992;4.504;2023-08-08T06:31:49;0.99;;;0.81;;
71176;SDS011;58877;51.992;4.504;2023-08-08T06:34:15;1.30;;;1.05;;
71176;SDS011;58877;51.992;4.504;2023-08-08T06:36:44;1.60;;;1.27;;
71176;SDS011;58877;51.992;4.504;2023-08-08T06:39:15;1.32;;;1.04;;
71176;SDS011;58877;51.992;4.504;2023-08-08T06:42:02;1.11;;;0.87;;
71176;SDS011;58877;51.992;4.504;2023-08-08T06:44:28;1.17;;;0.92;;
71176;SDS011;58877;51.992;4.504;2023-08-08T06:46:55;1.26;;;0.99;;
71176;SDS011;58877;51.992;4.504;2023-08-08T06:49:26;1.35;;;1.08;;
71176;SDS011;58877;51.992;4.504;2023-08-08T06:51:52;1.03;;;0.84;;
71176;SDS011;58877;51.992;4.504;2023-08-08T06:57:11;0.86;;;0.72;;
71176;SDS011;58877;51.992;4.504;2023-08-08T07:02:43;1.07;;;0.92;;
71176;SDS011;58877;51.992;4.504;2023-08-08T07:05:09;0.98;;;0.83;;
71176;SDS011;58877;51.992;4.504;2023-08-08T07:07:40;0.82;;;0.70;;
71176;SDS011;58877;51.992;4.504;2023-08-08T07:10:06;0.82;;;0.70;;
71176;SDS011;58877;51.992;4.504;2023-08-08T07:12:35;0.98;;;0.85;;
71176;SDS011;58877;51.992;4.504;2023-08-08T07:15:00;1.19;;;0.99;;
71176;SDS011;58877;51.992;4.504;2023-08-08T07:20:16;1.07;;;0.86;;
71176;SDS011;58877;51.992;4.504;2023-08-08T07:22:52;0.83;;;0.67;;
71176;SDS011;58877;51.992;4.504;2023-08-08T07:28:18;1.16;;;0.93;;
71176;SDS011;58877;51.992;4.504;2023-08-08T07:30:44;1.10;;;0.88;;
71176;SDS011;58877;51.992;4.504;2023-08-08T07:33:10;1.00;;;0.81;;
71176;SDS011;58877;51.992;4.504;2023-08-08T07:35:39;1.05;;;0.86;;
71176;SDS011;58877;51.992;4.504;2023-08-08T07:38:04;1.18;;;0.97;;
71176;SDS011;58877;51.992;4.504;2023-08-08T07:40:30;1.04;;;0.86;;
71176;SDS011;58877;51.992;4.504;2023-08-08T07:42:56;1.15;;;0.96;;
71176;SDS011;58877;51.992;4.504;2023-08-08T07:45:23;0.97;;;0.81;;
71176;SDS011;58877;51.992;4.504;2023-08-08T07:47:48;1.04;;;0.88;;
71176;SDS011;58877;51.992;4.504;2023-08-08T07:50:17;1.34;;;1.11;;
71176;SDS011;58877;51.992;4.504;2023-08-08T07:52:44;1.09;;;0.89;;
71176;SDS011;58877;51.992;4.504;2023-08-08T07:55:12;0.92;;;0.76;;
71176;SDS011;58877;51.992;4.504;2023-08-08T07:57:38;0.76;;;0.64;;
71176;SDS011;58877;51.992;4.504;2023-08-08T08:00:04;1.05;;;0.88;;
71176;SDS011;58877;51.992;4.504;2023-08-08T08:02:37;1.20;;;0.99;;
71176;SDS011;58877;51.992;4.504;2023-08-08T08:05:05;1.02;;;0.83;;
71176;SDS011;58877;51.992;4.504;2023-08-08T08:07:33;1.11;;;0.91;;
71176;SDS011;58877;51.992;4.504;2023-08-08T08:10:07;0.94;;;0.78;;
71176;SDS011;58877;51.992;4.504;2023-08-08T08:12:39;0.77;;;0.66;;
71176;SDS011;58877;51.992;4.504;2023-08-08T08:15:12;0.97;;;0.84;;
71176;SDS011;58877;51.992;4.504;2023-08-08T08:17:38;0.93;;;0.81;;
71176;SDS011;58877;51.992;4.504;2023-08-08T08:20:07;1.03;;;0.91;;
71176;SDS011;58877;51.992;4.504;2023-08-08T08:22:41;0.96;;;0.84;;
71176;SDS011;58877;51.992;4.504;2023-08-08T08:25:07;0.77;;;0.69;;
71176;SDS011;58877;51.992;4.504;2023-08-08T08:27:37;0.85;;;0.76;;
71176;SDS011;58877;51.992;4.504;2023-08-08T08:30:06;0.91;;;0.83;;
71176;SDS011;58877;51.992;4.504;2023-08-08T08:32:36;1.00;;;0.90;;
71176;SDS011;58877;51.992;4.504;2023-08-08T08:35:05;0.66;;;0.60;;
71176;SDS011;58877;51.992;4.504;2023-08-08T08:37:33;0.91;;;0.82;;
71176;SDS011;58877;51.992;4.504;2023-08-08T08:40:04;0.83;;;0.76;;
71176;SDS011;58877;51.992;4.504;2023-08-08T08:42:34;0.72;;;0.67;;
71176;SDS011;58877;51.992;4.504;2023-08-08T08:45:19;0.73;;;0.68;;
71176;SDS011;58877;51.992;4.504;2023-08-08T08:47:49;0.80;;;0.74;;
71176;SDS011;58877;51.992;4.504;2023-08-08T08:50:20;0.81;;;0.76;;
71176;SDS011;58877;51.992;4.504;2023-08-08T08:52:49;0.69;;;0.65;;
71176;SDS011;58877;51.992;4.504;2023-08-08T08:55:16;0.62;;;0.59;;
71176;SDS011;58877;51.992;4.504;2023-08-08T09:00:52;0.96;;;0.93;;
71176;SDS011;58877;51.992;4.504;2023-08-08T09:03:47;1.04;;;1.01;;
71176;SDS011;58877;51.992;4.504;2023-08-08T09:06:13;0.81;;;0.78;;
71176;SDS011;58877;51.992;4.504;2023-08-08T09:08:41;0.96;;;0.93;;
71176;SDS011;58877;51.992;4.504;2023-08-08T09:11:10;0.93;;;0.90;;
71176;SDS011;58877;51.992;4.504;2023-08-08T09:13:36;0.85;;;0.82;;
71176;SDS011;58877;51.992;4.504;2023-08-08T09:16:06;0.99;;;0.96;;
71176;SDS011;58877;51.992;4.504;2023-08-08T09:18:46;0.79;;;0.75;;
71176;SDS011;58877;51.992;4.504;2023-08-08T09:21:11;0.71;;;0.68;;
71176;SDS011;58877;51.992;4.504;2023-08-08T09:23:41;0.80;;;0.77;;
71176;SDS011;58877;51.992;4.504;2023-08-08T09:26:12;0.83;;;0.81;;
71176;SDS011;58877;51.992;4.504;2023-08-08T09:28:43;0.97;;;0.93;;
71176;SDS011;58877;51.992;4.504;2023-08-08T09:31:11;0.92;;;0.88;;
71176;SDS011;58877;51.992;4.504;2023-08-08T09:33:40;1.09;;;1.02;;
71176;SDS011;58877;51.992;4.504;2023-08-08T09:36:07;1.28;;;1.18;;
71176;SDS011;58877;51.992;4.504;2023-08-08T09:38:35;0.84;;;0.76;;
71176;SDS011;58877;51.992;4.504;2023-08-08T09:41:01;1.00;;;0.91;;
71176;SDS011;58877;51.992;4.504;2023-08-08T09:43:29;1.10;;;1.00;;
71176;SDS011;58877;51.992;4.504;2023-08-08T09:45:54;1.09;;;0.99;;
71176;SDS011;58877;51.992;4.504;2023-08-08T09:48:22;1.31;;;1.18;;
71176;SDS011;58877;51.992;4.504;2023-08-08T09:50:54;1.15;;;1.04;;
71176;SDS011;58877;51.992;4.504;2023-08-08T09:53:20;0.94;;;0.85;;
71176;SDS011;58877;51.992;4.504;2023-08-08T09:55:48;1.01;;;0.93;;
71176;SDS011;58877;51.992;4.504;2023-08-08T09:58:15;1.11;;;1.02;;
71176;SDS011;58877;51.992;4.504;2023-08-08T10:00:44;1.14;;;1.06;;
71176;SDS011;58877;51.992;4.504;2023-08-08T10:03:13;0.81;;;0.76;;
71176;SDS011;58877;51.992;4.504;2023-08-08T10:05:42;0.94;;;0.88;;
71176;SDS011;58877;51.992;4.504;2023-08-08T10:08:08;0.83;;;0.78;;
71176;SDS011;58877;51.992;4.504;2023-08-08T10:10:35;1.04;;;0.99;;
71176;SDS011;58877;51.992;4.504;2023-08-08T10:13:03;0.99;;;0.93;;
71176;SDS011;58877;51.992;4.504;2023-08-08T10:15:39;1.05;;;1.00;;
71176;SDS011;58877;51.992;4.504;2023-08-08T10:18:05;1.00;;;0.94;;
71176;SDS011;58877;51.992;4.504;2023-08-08T10:23:43;1.20;;;1.12;;
71176;SDS011;58877;51.992;4.504;2023-08-08T10:26:18;1.07;;;0.99;;
71176;SDS011;58877;51.992;4.504;2023-08-08T10:28:57;1.01;;;0.94;;
71176;SDS011;58877;51.992;4.504;2023-08-08T10:31:25;0.91;;;0.85;;
71176;SDS011;58877;51.992;4.504;2023-08-08T10:34:03;1.15;;;1.08;;
71176;SDS011;58877;51.992;4.504;2023-08-08T10:36:44;1.04;;;0.99;;
71176;SDS011;58877;51.992;4.504;2023-08-08T10:39:17;1.30;;;1.24;;
71176;SDS011;58877;51.992;4.504;2023-08-08T10:41:48;0.96;;;0.92;;
71176;SDS011;58877;51.992;4.504;2023-08-08T10:44:25;0.87;;;0.84;;
71176;SDS011;58877;51.992;4.504;2023-08-08T10:46:54;1.01;;;0.98;;
71176;SDS011;58877;51.992;4.504;2023-08-08T10:49:31;0.99;;;0.96;;
71176;SDS011;58877;51.992;4.504;2023-08-08T10:52:03;0.91;;;0.87;;
71176;SDS011;58877;51.992;4.504;2023-08-08T10:54:30;0.90;;;0.86;;
71176;SDS011;58877;51.992;4.504;2023-08-08T10:57:01;1.32;;;1.27;;
71176;SDS011;58877;51.992;4.504;2023-08-08T10:59:35;1.11;;;1.06;;
71176;SDS011;58877;51.992;4.504;2023-08-08T11:02:03;1.27;;;1.20;;
71176;SDS011;58877;51.992;4.504;2023-08-08T11:04:32;1.25;;;1.17;;
71176;SDS011;58877;51.992;4.504;2023-08-08T11:07:00;1.28;;;1.20;;
71176;SDS011;58877;51.992;4.504;2023-08-08T11:09:31;0.96;;;0.89;;
71176;SDS011;58877;51.992;4.504;2023-08-08T11:12:00;0.90;;;0.82;;
71176;SDS011;58877;51.992;4.504;2023-08-08T11:14:29;0.92;;;0.84;;
71176;SDS011;58877;51.992;4.504;2023-08-08T11:17:05;1.05;;;0.95;;
71176;SDS011;58877;51.992;4.504;2023-08-08T11:19:37;0.73;;;0.66;;
71176;SDS011;58877;51.992;4.504;2023-08-08T11:22:08;0.88;;;0.80;;
71176;SDS011;58877;51.992;4.504;2023-08-08T11:24:39;1.02;;;0.93;;
71176;SDS011;58877;51.992;4.504;2023-08-08T11:27:05;1.06;;;0.97;;
71176;SDS011;58877;51.992;4.504;2023-08-08T11:29:31;0.93;;;0.85;;
71176;SDS011;58877;51.992;4.504;2023-08-08T11:32:00;0.98;;;0.88;;
71176;SDS011;58877;51.992;4.504;2023-08-08T11:34:30;1.22;;;1.09;;
71176;SDS011;58877;51.992;4.504;2023-08-08T11:37:00;1.01;;;0.91;;
71176;SDS011;58877;51.992;4.504;2023-08-08T11:39:36;0.87;;;0.81;;
71176;SDS011;58877;51.992;4.504;2023-08-08T11:42:03;0.77;;;0.72;;
71176;SDS011;58877;51.992;4.504;2023-08-08T11:44:34;0.81;;;0.76;;
71176;SDS011;58877;51.992;4.504;2023-08-08T11:47:01;0.89;;;0.84;;
71176;SDS011;58877;51.992;4.504;2023-08-08T11:49:30;0.97;;;0.92;;
71176;SDS011;58877;51.992;4.504;2023-08-08T11:52:14;1.28;;;1.21;;
71176;SDS011;58877;51.992;4.504;2023-08-08T11:54:40;1.08;;;1.01;;
71176;SDS011;58877;51.992;4.504;2023-08-08T11:57:06;1.33;;;1.20;;
71176;SDS011;58877;51.992;4.504;2023-08-08T11:59:35;1.16;;;1.01;;
71176;SDS011;58877;51.992;4.504;2023-08-08T12:02:03;1.15;;;0.99;;
71176;SDS011;58877;51.992;4.504;2023-08-08T12:04:33;1.19;;;1.03;;
71176;SDS011;58877;51.992;4.504;2023-08-08T12:07:01;1.37;;;1.19;;
71176;SDS011;58877;51.992;4.504;2023-08-08T12:09:30;1.32;;;1.14;;
71176;SDS011;58877;51.992;4.504;2023-08-08T12:12:11;1.35;;;1.16;;
71176;SDS011;58877;51.992;4.504;2023-08-08T12:14:54;1.12;;;0.98;;
71176;SDS011;58877;51.992;4.504;2023-08-08T12:17:30;1.32;;;1.16;;
71176;SDS011;58877;51.992;4.504;2023-08-08T12:19:59;1.30;;;1.11;;
71176;SDS011;58877;51.992;4.504;2023-08-08T12:22:31;1.07;;;0.89;;
71176;SDS011;58877;51.992;4.504;2023-08-08T12:25:00;1.68;;;1.38;;
71176;SDS011;58877;51.992;4.504;2023-08-08T12:27:29;1.42;;;1.18;;
71176;SDS011;58877;51.992;4.504;2023-08-08T12:29:56;1.72;;;1.44;;
71176;SDS011;58877;51.992;4.504;2023-08-08T12:32:36;1.25;;;1.05;;
71176;SDS011;58877;51.992;4.504;2023-08-08T12:35:03;1.15;;;0.97;;
71176;SDS011;58877;51.992;4.504;2023-08-08T12:37:32;1.20;;;1.01;;
71176;SDS011;58877;51.992;4.504;2023-08-08T12:40:01;1.21;;;1.01;;
71176;SDS011;58877;51.992;4.504;2023-08-08T12:42:30;1.47;;;1.23;;
71176;SDS011;58877;51.992;4.504;2023-08-08T12:44:56;1.23;;;1.04;;
71176;SDS011;58877;51.992;4.504;2023-08-08T12:47:22;1.58;;;1.37;;
71176;SDS011;58877;51.992;4.504;2023-08-08T12:50:01;1.11;;;0.96;;
71176;SDS011;58877;51.992;4.504;2023-08-08T12:52:30;1.18;;;1.03;;
71176;SDS011;58877;51.992;4.504;2023-08-08T12:54:57;1.39;;;1.21;;
71176;SDS011;58877;51.992;4.504;2023-08-08T12:57:23;1.32;;;1.12;;
71176;SDS011;58877;51.992;4.504;2023-08-08T12:59:50;1.12;;;0.97;;
71176;SDS011;58877;51.992;4.504;2023-08-08T13:02:25;1.59;;;1.37;;
71176;SDS011;58877;51.992;4.504;2023-08-08T13:04:51;0.98;;;0.86;;
71176;SDS011;58877;51.992;4.504;2023-08-08T13:07:25;1.09;;;0.98;;
71176;SDS011;58877;51.992;4.504;2023-08-08T13:09:51;1.01;;;0.92;;
71176;SDS011;58877;51.992;4.504;2023-08-08T13:12:18;1.26;;;1.16;;
71176;SDS011;58877;51.992;4.504;2023-08-08T13:14:49;1.12;;;1.04;;
71176;SDS011;58877;51.992;4.504;2023-08-08T13:17:18;1.26;;;1.17;;
71176;SDS011;58877;51.992;4.504;2023-08-08T13:19:48;1.26;;;1.17;;
71176;SDS011;58877;51.992;4.504;2023-08-08T13:22:14;1.30;;;1.19;;
71176;SDS011;58877;51.992;4.504;2023-08-08T13:24:44;1.18;;;1.08;;
71176;SDS011;58877;51.992;4.504;2023-08-08T13:27:13;0.93;;;0.86;;
71176;SDS011;58877;51.992;4.504;2023-08-08T13:29:41;1.14;;;1.06;;
71176;SDS011;58877;51.992;4.504;2023-08-08T13:32:13;1.42;;;1.31;;
71176;SDS011;58877;51.992;4.504;2023-08-08T13:34:39;1.69;;;1.52;;
71176;SDS011;58877;51.992;4.504;2023-08-08T13:37:15;1.33;;;1.20;;
71176;SDS011;58877;51.992;4.504;2023-08-08T13:39:41;1.46;;;1.33;;
71176;SDS011;58877;51.992;4.504;2023-08-08T13:42:08;1.38;;;1.27;;
71176;SDS011;58877;51.992;4.504;2023-08-08T13:44:34;1.39;;;1.27;;
71176;SDS011;58877;51.992;4.504;2023-08-08T13:47:02;1.65;;;1.51;;
71176;SDS011;58877;51.992;4.504;2023-08-08T13:49:29;1.62;;;1.50;;
71176;SDS011;58877;51.992;4.504;2023-08-08T13:51:55;1.27;;;1.18;;
71176;SDS011;58877;51.992;4.504;2023-08-08T13:57:01;1.30;;;1.21;;
71176;SDS011;58877;51.992;4.504;2023-08-08T13:59:33;1.42;;;1.34;;
71176;SDS011;58877;51.992;4.504;2023-08-08T14:01:58;1.62;;;1.55;;
71176;SDS011;58877;51.992;4.504;2023-08-08T14:04:25;1.59;;;1.50;;
71176;SDS011;58877;51.992;4.504;2023-08-08T14:06:52;1.56;;;1.48;;
71176;SDS011;58877;51.992;4.504;2023-08-08T14:09:17;1.62;;;1.55;;
71176;SDS011;58877;51.992;4.504;2023-08-08T14:11:43;1.47;;;1.40;;
71176;SDS011;58877;51.992;4.504;2023-08-08T14:14:09;1.80;;;1.67;;
71176;SDS011;58877;51.992;4.504;2023-08-08T14:16:36;1.79;;;1.68;;
71176;SDS011;58877;51.992;4.504;2023-08-08T14:19:02;1.47;;;1.40;;
71176;SDS011;58877;51.992;4.504;2023-08-08T14:21:38;1.60;;;1.51;;
71176;SDS011;58877;51.992;4.504;2023-08-08T14:24:04;1.40;;;1.34;;
71176;SDS011;58877;51.992;4.504;2023-08-08T14:26:34;1.54;;;1.47;;
71176;SDS011;58877;51.992;4.504;2023-08-08T14:29:00;1.37;;;1.31;;
71176;SDS011;58877;51.992;4.504;2023-08-08T14:31:26;1.43;;;1.36;;
71176;SDS011;58877;51.992;4.504;2023-08-08T14:33:57;1.20;;;1.15;;
71176;SDS011;58877;51.992;4.504;2023-08-08T14:36:34;1.26;;;1.21;;
71176;SDS011;58877;51.992;4.504;2023-08-08T14:39:04;1.15;;;1.12;;
71176;SDS011;58877;51.992;4.504;2023-08-08T14:41:37;1.24;;;1.19;;
71176;SDS011;58877;51.992;4.504;2023-08-08T14:44:07;1.07;;;1.03;;
71176;SDS011;58877;51.992;4.504;2023-08-08T14:46:33;1.21;;;1.18;;
71176;SDS011;58877;51.992;4.504;2023-08-08T14:48:59;1.18;;;1.15;;
71176;SDS011;58877;51.992;4.504;2023-08-08T14:51:25;1.13;;;1.10;;
71176;SDS011;58877;51.992;4.504;2023-08-08T14:53:51;1.42;;;1.41;;
71176;SDS011;58877;51.992;4.504;2023-08-08T14:56:28;1.33;;;1.32;;
71176;SDS011;58877;51.992;4.504;2023-08-08T14:58:54;1.28;;;1.24;;
71176;SDS011;58877;51.992;4.504;2023-08-08T15:01:21;1.46;;;1.41;;
71176;SDS011;58877;51.992;4.504;2023-08-08T15:03:47;1.28;;;1.23;;
71176;SDS011;58877;51.992;4.504;2023-08-08T15:06:12;1.43;;;1.38;;
71176;SDS011;58877;51.992;4.504;2023-08-08T15:08:42;1.35;;;1.30;;
71176;SDS011;58877;51.992;4.504;2023-08-08T15:11:09;1.49;;;1.43;;
71176;SDS011;58877;51.992;4.504;2023-08-08T15:13:37;1.13;;;1.09;;
71176;SDS011;58877;51.992;4.504;2023-08-08T15:16:02;1.51;;;1.43;;
71176;SDS011;58877;51.992;4.504;2023-08-08T15:18:37;1.38;;;1.30;;
71176;SDS011;58877;51.992;4.504;2023-08-08T15:21:04;1.45;;;1.38;;
71176;SDS011;58877;51.992;4.504;2023-08-08T15:23:32;1.42;;;1.36;;
71176;SDS011;58877;51.992;4.504;2023-08-08T15:29:32;1.47;;;1.42;;
71176;SDS011;58877;51.992;4.504;2023-08-08T15:31:58;1.55;;;1.50;;
71176;SDS011;58877;51.992;4.504;2023-08-08T15:34:24;1.45;;;1.41;;
71176;SDS011;58877;51.992;4.504;2023-08-08T15:36:50;1.40;;;1.36;;
71176;SDS011;58877;51.992;4.504;2023-08-08T15:39:26;1.46;;;1.42;;
71176;SDS011;58877;51.992;4.504;2023-08-08T15:41:59;1.49;;;1.45;;